createdAt,value
2022-12-31T00:01:34.040Z,27.10
2022-12-31T00:04:02.170Z,25.52
2022-12-31T00:06:32.105Z,27.73
2022-12-31T00:09:03.838Z,24.30
2022-12-31T00:11:33.022Z,27.73
2022-12-31T00:14:01.179Z,26.35
2022-12-31T00:16:31.198Z,24.85
2022-12-31T00:19:01.898Z,26.52
2022-12-31T00:21:33.075Z,26.92
2022-12-31T00:24:01.264Z,27.40
2022-12-31T00:26:31.673Z,26.83
2022-12-31T00:29:01.263Z,25.25
2022-12-31T00:31:38.595Z,28.13
2022-12-31T00:34:08.556Z,29.15
2022-12-31T00:36:39.654Z,27.45
2022-12-31T00:39:09.467Z,28.33
2022-12-31T00:41:37.631Z,29.33
2022-12-31T00:44:05.906Z,27.65
2022-12-31T00:49:02.073Z,27.40
2022-12-31T00:51:31.671Z,29.38
2022-12-31T00:54:06.222Z,28.35
2022-12-31T00:56:34.565Z,27.02
2022-12-31T00:59:02.773Z,26.98
2022-12-31T01:01:32.639Z,25.25
2022-12-31T01:04:04.898Z,25.55
2022-12-31T01:06:34.649Z,25.25
2022-12-31T01:09:02.868Z,23.80
2022-12-31T01:11:31.500Z,23.55
2022-12-31T01:14:01.810Z,24.77
2022-12-31T01:16:32.231Z,22.95
2022-12-31T01:19:01.764Z,23.30
2022-12-31T01:21:30.533Z,22.95
2022-12-31T01:24:01.119Z,23.50
2022-12-31T01:26:29.806Z,21.63
2022-12-31T01:28:58.230Z,22.70
2022-12-31T01:31:26.886Z,24.00
2022-12-31T01:33:55.747Z,24.13
2022-12-31T01:36:26.606Z,23.40
2022-12-31T01:38:57.131Z,24.88
2022-12-31T01:41:31.568Z,23.02
2022-12-31T01:44:01.425Z,22.83
2022-12-31T01:46:36.239Z,21.60
2022-12-31T01:49:11.858Z,23.08
2022-12-31T01:51:42.301Z,23.67
2022-12-31T01:54:12.879Z,23.50
2022-12-31T01:56:44.496Z,22.23
2022-12-31T01:59:15.386Z,22.48
2022-12-31T02:01:46.785Z,22.02
2022-12-31T02:04:15.963Z,23.13
2022-12-31T02:06:48.434Z,22.70
2022-12-31T02:09:17.048Z,21.60
2022-12-31T02:11:46.612Z,21.67
2022-12-31T02:14:18.479Z,24.42
2022-12-31T02:16:55.797Z,23.75
2022-12-31T02:20:00.168Z,25.25
2022-12-31T02:22:53.322Z,22.88
2022-12-31T02:25:38.049Z,21.77
2022-12-31T02:28:21.439Z,24.15
2022-12-31T02:30:55.554Z,23.63
2022-12-31T02:33:33.532Z,24.52
2022-12-31T02:36:06.647Z,22.42
2022-12-31T02:38:40.124Z,25.00
2022-12-31T02:41:33.634Z,22.17
2022-12-31T02:44:01.873Z,20.65
2022-12-31T02:46:39.420Z,22.92
2022-12-31T02:49:15.333Z,22.27
2022-12-31T02:51:51.347Z,21.98
2022-12-31T02:57:02.163Z,20.30
2022-12-31T02:59:56.518Z,22.85
2022-12-31T03:02:29.184Z,21.02
2022-12-31T03:04:58.918Z,23.55
2022-12-31T03:07:29.052Z,21.77
2022-12-31T03:09:57.491Z,21.45
2022-12-31T03:12:46.169Z,22.05
2022-12-31T03:15:21.863Z,21.98
2022-12-31T03:17:58.025Z,22.05
2022-12-31T03:20:46.638Z,22.33
2022-12-31T03:23:19.088Z,21.27
2022-12-31T03:25:46.752Z,20.70
2022-12-31T03:28:18.750Z,23.65
2022-12-31T03:30:49.455Z,21.02
2022-12-31T03:33:19.737Z,23.27
2022-12-31T03:35:49.041Z,22.63
2022-12-31T03:38:17.925Z,24.33
2022-12-31T03:40:47.927Z,23.83
2022-12-31T03:43:16.285Z,22.08
2022-12-31T03:45:44.503Z,21.80
2022-12-31T03:48:12.737Z,21.77
2022-12-31T03:50:42.297Z,24.02
2022-12-31T03:53:11.268Z,23.15
2022-12-31T03:55:39.474Z,22.25
2022-12-31T03:58:07.905Z,23.27
2022-12-31T04:00:36.075Z,23.33
2022-12-31T04:03:04.320Z,22.30
2022-12-31T04:05:33.785Z,23.70
2022-12-31T04:08:03.357Z,23.60
2022-12-31T04:10:31.556Z,24.65
2022-12-31T04:13:03.126Z,24.85
2022-12-31T04:15:31.361Z,23.58
2022-12-31T04:17:59.570Z,25.30
2022-12-31T04:20:27.806Z,26.10
2022-12-31T04:22:55.941Z,25.15
2022-12-31T04:25:25.507Z,23.50
2022-12-31T04:27:53.649Z,25.25
2022-12-31T04:30:21.745Z,26.33
2022-12-31T04:32:49.903Z,25.48
2022-12-31T04:35:18.264Z,25.95
2022-12-31T04:37:46.399Z,25.35
2022-12-31T04:40:14.612Z,25.98
2022-12-31T04:42:44.743Z,24.52
2022-12-31T04:45:13.142Z,25.73
2022-12-31T04:47:41.284Z,26.60
2022-12-31T04:50:11.543Z,26.40
2022-12-31T04:52:42.893Z,28.45
2022-12-31T04:55:11.640Z,26.63
2022-12-31T04:57:39.895Z,25.75
2022-12-31T05:00:10.939Z,26.42
2022-12-31T05:02:39.321Z,25.65
2022-12-31T05:05:08.449Z,25.20
2022-12-31T05:07:36.628Z,25.85
2022-12-31T05:10:05.951Z,25.55
2022-12-31T05:12:34.231Z,27.90
2022-12-31T05:15:02.579Z,25.17
2022-12-31T05:17:32.197Z,23.73
2022-12-31T05:20:00.641Z,24.48
2022-12-31T05:22:31.261Z,21.25
2022-12-31T05:25:00.689Z,21.00
2022-12-31T05:27:31.247Z,19.40
2022-12-31T05:29:59.732Z,20.23
2022-12-31T05:32:28.288Z,18.20
2022-12-31T05:34:58.102Z,18.52
2022-12-31T05:37:26.442Z,18.02
2022-12-31T05:39:54.679Z,18.73
2022-12-31T05:42:27.265Z,19.67
2022-12-31T05:44:55.547Z,20.73
2022-12-31T05:47:24.111Z,22.15
2022-12-31T05:49:52.325Z,22.08
2022-12-31T05:52:22.054Z,22.15
2022-12-31T05:54:50.243Z,20.80
2022-12-31T05:57:18.417Z,21.25
2022-12-31T05:59:46.623Z,20.75
2022-12-31T06:02:14.983Z,18.92
2022-12-31T06:04:43.176Z,21.77
2022-12-31T06:07:11.455Z,23.20
2022-12-31T06:09:41.127Z,20.67
2022-12-31T06:12:10.294Z,21.67
2022-12-31T06:14:43.782Z,23.13
2022-12-31T06:17:13.831Z,19.65
2022-12-31T06:19:42.119Z,20.02
2022-12-31T06:22:10.362Z,19.85
2022-12-31T06:24:38.469Z,20.50
2022-12-31T06:27:08.146Z,23.98
2022-12-31T06:29:36.294Z,24.65
2022-12-31T06:32:04.665Z,22.95
2022-12-31T06:34:32.841Z,23.45
2022-12-31T06:37:00.947Z,24.95
2022-12-31T06:39:29.352Z,25.83
2022-12-31T06:41:57.813Z,25.42
2022-12-31T06:44:27.416Z,26.13
2022-12-31T06:46:55.640Z,20.50
2022-12-31T06:49:23.850Z,21.85
2022-12-31T06:51:52.016Z,24.38
2022-12-31T06:54:20.647Z,22.90
2022-12-31T06:56:49.290Z,26.90
2022-12-31T06:59:26.370Z,25.27
2022-12-31T07:02:12.816Z,27.38
2022-12-31T07:05:14.208Z,26.27
2022-12-31T07:07:56.626Z,25.70
2022-12-31T07:10:37.335Z,25.42
2022-12-31T07:13:18.673Z,24.15
2022-12-31T07:16:01.742Z,19.60
2022-12-31T07:18:38.152Z,19.63
2022-12-31T07:21:11.937Z,20.58
2022-12-31T07:23:40.650Z,20.15
2022-12-31T07:26:21.379Z,20.52
2022-12-31T07:29:00.499Z,22.20
2022-12-31T07:31:48.116Z,21.05
2022-12-31T07:34:26.544Z,22.20
2022-12-31T07:37:04.551Z,21.52
2022-12-31T07:39:40.346Z,26.73
2022-12-31T07:42:16.287Z,30.25
2022-12-31T07:47:26.943Z,27.88
2022-12-31T07:49:58.262Z,31.60
2022-12-31T07:52:27.390Z,33.28
2022-12-31T07:54:55.631Z,36.78
2022-12-31T07:57:27.470Z,37.17
2022-12-31T08:00:06.165Z,33.65
2022-12-31T08:03:05.061Z,32.67
2022-12-31T08:05:41.043Z,30.10
2022-12-31T08:10:57.849Z,29.15
2022-12-31T08:13:27.000Z,26.38
2022-12-31T08:15:56.156Z,27.80
2022-12-31T08:18:24.792Z,26.90
2022-12-31T08:21:05.639Z,25.90
2022-12-31T08:23:48.336Z,25.63
2022-12-31T08:26:28.362Z,24.00
2022-12-31T08:29:05.929Z,24.30
2022-12-31T08:31:45.322Z,25.25
2022-12-31T08:34:24.135Z,25.65
2022-12-31T08:37:01.461Z,23.83
2022-12-31T08:39:45.350Z,25.52
2022-12-31T08:42:23.357Z,24.48
2022-12-31T08:45:00.729Z,25.48
2022-12-31T08:47:39.993Z,23.73
2022-12-31T08:50:14.459Z,24.90
2022-12-31T08:52:45.898Z,25.52
2022-12-31T08:55:16.744Z,25.88
2022-12-31T08:57:53.600Z,24.17
2022-12-31T09:00:23.143Z,24.88
2022-12-31T09:03:17.981Z,26.10
2022-12-31T09:05:54.884Z,26.02
2022-12-31T09:08:31.767Z,24.80
2022-12-31T09:11:07.715Z,27.05
2022-12-31T09:16:15.266Z,24.90
2022-12-31T09:18:47.170Z,26.67
2022-12-31T09:21:17.112Z,29.65
2022-12-31T09:23:47.336Z,28.05
2022-12-31T09:26:38.854Z,28.00
2022-12-31T09:29:14.306Z,29.50
2022-12-31T09:31:51.090Z,28.00
2022-12-31T09:34:27.163Z,30.08
2022-12-31T09:39:34.198Z,27.23
2022-12-31T09:42:26.784Z,28.50
2022-12-31T09:45:23.993Z,28.45
2022-12-31T09:48:33.992Z,27.52
2022-12-31T09:51:21.678Z,26.67
2022-12-31T09:54:15.087Z,26.67
2022-12-31T09:56:57.164Z,27.58
2022-12-31T09:59:37.456Z,24.75
2022-12-31T10:02:21.648Z,27.45
2022-12-31T10:05:01.352Z,26.70
2022-12-31T10:07:50.382Z,26.67
2022-12-31T10:10:25.214Z,27.73
2022-12-31T10:13:38.158Z,26.10
2022-12-31T10:16:39.601Z,26.98
2022-12-31T10:19:36.492Z,25.15
2022-12-31T10:24:56.097Z,27.20
2022-12-31T10:27:50.633Z,26.45
2022-12-31T10:30:22.540Z,29.75
2022-12-31T10:33:01.518Z,28.83
2022-12-31T10:35:38.183Z,29.38
2022-12-31T10:38:19.644Z,29.52
2022-12-31T10:41:21.430Z,28.55
2022-12-31T10:44:32.333Z,28.83
2022-12-31T10:47:35.352Z,27.85
2022-12-31T10:50:40.268Z,28.63
2022-12-31T10:53:56.211Z,29.90
2022-12-31T10:56:55.357Z,29.30
2022-12-31T10:59:54.328Z,29.10
2022-12-31T11:03:01.709Z,29.80
2022-12-31T11:06:20.040Z,28.60
2022-12-31T11:09:32.705Z,30.50
2022-12-31T11:12:09.784Z,30.95
2022-12-31T11:14:59.131Z,30.48
2022-12-31T11:17:37.090Z,30.33
2022-12-31T11:20:24.158Z,28.15
2022-12-31T11:23:09.611Z,27.70
2022-12-31T11:25:50.566Z,27.63
2022-12-31T11:28:51.089Z,27.50
2022-12-31T11:31:33.865Z,30.13
2022-12-31T11:34:19.170Z,28.92
2022-12-31T11:37:02.575Z,27.25
2022-12-31T11:39:48.441Z,26.00
2022-12-31T11:42:25.981Z,26.35
2022-12-31T11:45:00.895Z,26.38
2022-12-31T11:48:28.702Z,28.43
2022-12-31T11:50:48.048Z,25.38
2022-12-31T11:53:33.069Z,27.90
2022-12-31T11:56:18.983Z,25.52
2022-12-31T11:58:51.195Z,26.85
2022-12-31T12:01:26.138Z,28.50
2022-12-31T12:03:55.465Z,28.13
2022-12-31T12:06:28.675Z,26.10
2022-12-31T12:09:01.176Z,25.60
2022-12-31T12:11:36.038Z,26.35
2022-12-31T12:14:22.374Z,26.85
2022-12-31T12:16:59.162Z,25.08
2022-12-31T12:19:34.846Z,26.77
2022-12-31T12:22:12.862Z,26.02
2022-12-31T12:24:41.681Z,26.38
2022-12-31T12:27:25.205Z,26.65
2022-12-31T12:29:53.433Z,27.08
2022-12-31T12:32:25.064Z,23.83
2022-12-31T12:34:54.216Z,25.65
2022-12-31T12:37:33.514Z,26.52
2022-12-31T12:40:03.372Z,25.85
2022-12-31T12:42:33.654Z,27.23
2022-12-31T12:45:06.339Z,25.98
2022-12-31T12:47:35.708Z,25.40
2022-12-31T12:50:05.146Z,25.45
2022-12-31T12:53:09.382Z,26.83
2022-12-31T12:55:48.028Z,25.85
2022-12-31T12:58:40.039Z,25.17
2022-12-31T13:01:16.091Z,26.40
2022-12-31T13:07:11.731Z,25.02
2022-12-31T13:09:55.288Z,23.10
2022-12-31T13:12:48.976Z,25.40
2022-12-31T13:15:30.120Z,24.70
2022-12-31T13:18:09.137Z,24.15
2022-12-31T13:20:46.263Z,23.83
2022-12-31T13:23:24.101Z,24.45
2022-12-31T13:26:03.174Z,23.27
2022-12-31T13:28:33.297Z,22.85
2022-12-31T13:31:07.255Z,23.02
2022-12-31T13:33:41.461Z,21.77
2022-12-31T13:36:11.687Z,22.83
2022-12-31T13:38:43.489Z,22.50
2022-12-31T13:41:19.157Z,22.88
2022-12-31T13:43:54.793Z,22.83
2022-12-31T13:46:33.527Z,22.23
2022-12-31T13:49:05.472Z,21.80
2022-12-31T13:51:42.355Z,22.52
2022-12-31T13:54:23.267Z,23.38
2022-12-31T13:56:53.374Z,22.75
2022-12-31T13:59:27.536Z,22.30
2022-12-31T14:02:02.004Z,22.17
2022-12-31T14:04:35.146Z,22.52
2022-12-31T14:07:08.905Z,23.23
2022-12-31T14:09:38.513Z,23.52
2022-12-31T14:12:20.655Z,22.73
2022-12-31T14:14:55.670Z,22.30
2022-12-31T14:17:34.588Z,21.83
2022-12-31T14:20:18.314Z,22.98
2022-12-31T14:22:53.162Z,23.75
2022-12-31T14:25:30.753Z,20.75
2022-12-31T14:28:03.083Z,21.35
2022-12-31T14:30:34.331Z,22.23
2022-12-31T14:33:16.672Z,21.38
2022-12-31T14:36:10.623Z,19.95
2022-12-31T14:38:54.179Z,22.20
2022-12-31T14:41:44.730Z,21.05
2022-12-31T14:44:28.456Z,22.45
2022-12-31T14:47:13.226Z,22.00
2022-12-31T14:49:51.288Z,21.85
2022-12-31T14:52:25.278Z,21.98
2022-12-31T14:55:22.975Z,22.20
2022-12-31T15:00:41.191Z,22.88
2022-12-31T15:03:25.548Z,22.90
2022-12-31T15:06:00.257Z,21.65
2022-12-31T15:08:40.899Z,23.15
2022-12-31T15:11:23.885Z,22.70
2022-12-31T15:14:18.243Z,22.15
2022-12-31T15:16:56.030Z,21.80
2022-12-31T15:19:53.391Z,22.00
2022-12-31T15:22:33.529Z,23.33
2022-12-31T15:25:03.174Z,22.30
2022-12-31T15:27:36.952Z,23.55
2022-12-31T15:30:07.383Z,35.13
2022-12-31T15:32:38.167Z,50.05
2022-12-31T15:35:27.412Z,53.47
2022-12-31T15:38:02.287Z,56.05
2022-12-31T15:40:31.811Z,47.30
2022-12-31T15:43:10.474Z,47.88
2022-12-31T15:45:40.929Z,46.50
2022-12-31T15:48:16.585Z,44.35
2022-12-31T15:50:46.107Z,44.67
2022-12-31T15:53:28.439Z,49.45
2022-12-31T15:55:59.434Z,44.80
2022-12-31T15:58:32.185Z,44.70
2022-12-31T16:01:09.920Z,48.78
2022-12-31T16:03:38.586Z,48.22
2022-12-31T16:06:13.366Z,47.85
2022-12-31T16:08:47.019Z,47.30
2022-12-31T16:11:16.276Z,49.28
2022-12-31T16:13:47.776Z,45.97
2022-12-31T16:16:23.579Z,47.80
2022-12-31T16:18:53.304Z,47.33
2022-12-31T16:21:27.098Z,51.78
2022-12-31T16:23:58.441Z,53.83
2022-12-31T16:26:32.668Z,52.00
2022-12-31T16:29:01.507Z,50.35
2022-12-31T16:31:33.098Z,75.50
2022-12-31T16:34:06.281Z,58.33
2022-12-31T16:36:35.537Z,52.05
2022-12-31T16:39:25.459Z,58.70
2022-12-31T16:42:07.956Z,47.53
2022-12-31T16:44:36.566Z,45.35
2022-12-31T16:47:07.234Z,48.95
2022-12-31T16:49:39.060Z,56.42
2022-12-31T16:52:09.974Z,54.58
2022-12-31T16:54:45.713Z,52.65
2022-12-31T16:57:21.331Z,56.08
2022-12-31T16:59:53.252Z,50.50
2022-12-31T17:02:24.296Z,52.10
2022-12-31T17:04:56.387Z,65.00
2022-12-31T17:07:43.629Z,65.38
2022-12-31T17:10:21.631Z,73.45
2022-12-31T17:15:46.229Z,57.10
2022-12-31T17:18:19.717Z,60.35
2022-12-31T17:20:48.994Z,63.88
2022-12-31T17:23:25.249Z,65.40
2022-12-31T17:26:02.118Z,64.70
2022-12-31T17:28:38.669Z,60.50
2022-12-31T17:31:29.206Z,64.82
2022-12-31T17:34:08.322Z,64.85
2022-12-31T17:36:38.570Z,61.95
2022-12-31T17:39:18.624Z,62.88
2022-12-31T17:41:50.829Z,63.67
2022-12-31T17:44:22.735Z,63.53
2022-12-31T17:46:52.133Z,64.82
2022-12-31T17:49:27.218Z,65.47
2022-12-31T17:51:55.513Z,67.90
2022-12-31T17:54:23.727Z,68.93
2022-12-31T17:56:53.769Z,66.72
2022-12-31T17:59:24.885Z,68.40
2022-12-31T18:01:53.301Z,68.03
2022-12-31T18:04:21.878Z,81.68
2022-12-31T18:06:50.102Z,107.25
2022-12-31T18:09:18.334Z,109.07
2022-12-31T18:11:47.027Z,101.15
2022-12-31T18:14:17.505Z,94.10
2022-12-31T18:16:46.104Z,96.80
2022-12-31T18:19:45.820Z,83.25
2022-12-31T18:22:08.188Z,75.68
2022-12-31T18:24:36.627Z,71.05
2022-12-31T18:27:05.377Z,78.78
2022-12-31T18:29:36.438Z,70.57
2022-12-31T18:32:05.091Z,68.05
2022-12-31T18:34:33.209Z,62.88
2022-12-31T18:37:01.477Z,61.22
2022-12-31T18:39:29.833Z,60.50
2022-12-31T18:41:58.015Z,56.25
2022-12-31T18:44:26.221Z,60.35
2022-12-31T18:46:55.842Z,60.10
2022-12-31T18:49:24.191Z,56.10
2022-12-31T18:51:54.318Z,56.10
2022-12-31T18:54:22.673Z,55.50
2022-12-31T18:56:56.811Z,57.58
2022-12-31T18:59:26.581Z,58.13
2022-12-31T19:01:56.412Z,229.38
2022-12-31T19:04:28.297Z,166.40
2022-12-31T19:06:57.233Z,107.60
2022-12-31T19:12:16.740Z,98.22
2022-12-31T19:14:45.666Z,62.85
2022-12-31T19:17:15.656Z,58.08
2022-12-31T19:19:43.965Z,60.35
2022-12-31T19:22:16.322Z,60.38
2022-12-31T19:24:44.780Z,80.70
2022-12-31T19:27:17.102Z,148.80
2022-12-31T19:29:45.695Z,119.97
2022-12-31T19:32:15.298Z,83.20
2022-12-31T19:34:44.672Z,83.00
2022-12-31T19:37:22.259Z,70.53
2022-12-31T19:39:50.681Z,80.47
2022-12-31T19:42:19.000Z,72.28
2022-12-31T19:44:47.302Z,69.05
2022-12-31T19:47:18.054Z,72.07
2022-12-31T19:49:46.768Z,83.63
2022-12-31T19:52:15.009Z,82.95
2022-12-31T19:54:43.248Z,91.60
2022-12-31T19:57:11.468Z,81.18
2022-12-31T19:59:39.750Z,86.85
2022-12-31T20:02:08.655Z,77.65
2022-12-31T20:04:38.439Z,77.00
2022-12-31T20:07:06.777Z,77.65
2022-12-31T20:09:35.088Z,87.50
2022-12-31T20:12:03.407Z,111.50
2022-12-31T20:14:33.008Z,95.13
2022-12-31T20:17:01.400Z,119.57
2022-12-31T20:19:30.743Z,176.43
2022-12-31T20:22:00.878Z,155.40
2022-12-31T20:24:31.315Z,115.05
2022-12-31T20:27:00.116Z,107.28
2022-12-31T20:29:28.721Z,89.68
2022-12-31T20:32:01.840Z,87.93
2022-12-31T20:34:30.923Z,93.13
2022-12-31T20:37:00.699Z,82.60
2022-12-31T20:39:29.068Z,87.75
2022-12-31T20:41:57.423Z,69.75
2022-12-31T20:44:25.889Z,74.30
2022-12-31T20:46:54.310Z,77.10
2022-12-31T20:49:37.518Z,78.18
2022-12-31T20:52:12.683Z,65.78
2022-12-31T20:54:41.478Z,75.65
2022-12-31T20:57:10.121Z,65.45
2022-12-31T20:59:38.613Z,65.55
2022-12-31T21:02:29.490Z,60.63
2022-12-31T21:04:56.098Z,58.05
2022-12-31T21:07:26.159Z,60.20
2022-12-31T21:09:54.413Z,63.25
2022-12-31T21:12:40.405Z,67.00
2022-12-31T21:15:09.991Z,70.93
2022-12-31T21:17:38.219Z,86.13
2022-12-31T21:20:08.000Z,65.25
2022-12-31T21:22:37.777Z,77.20
2022-12-31T21:25:06.897Z,69.35
2022-12-31T21:27:37.055Z,73.68
2022-12-31T21:30:22.093Z,76.85
2022-12-31T21:32:50.618Z,149.10
2022-12-31T21:38:10.524Z,125.72
2022-12-31T21:40:40.163Z,78.07
2022-12-31T21:43:08.722Z,56.80
2022-12-31T21:45:37.075Z,58.42
2022-12-31T21:48:25.194Z,51.45
2022-12-31T21:50:55.192Z,49.75
2022-12-31T21:53:32.291Z,50.47
2022-12-31T21:56:11.676Z,51.95
2022-12-31T21:58:41.952Z,53.78
2022-12-31T22:01:34.162Z,56.20
2022-12-31T22:04:02.900Z,57.92
2022-12-31T22:06:31.454Z,57.03
2022-12-31T22:09:01.448Z,52.33
2022-12-31T22:11:30.583Z,51.90
2022-12-31T22:13:59.095Z,50.15
2022-12-31T22:16:27.678Z,46.28
2022-12-31T22:18:57.244Z,50.17
2022-12-31T22:21:32.015Z,49.90
2022-12-31T22:24:03.197Z,46.58
2022-12-31T22:26:31.618Z,47.22
2022-12-31T22:29:00.226Z,44.65
2022-12-31T22:31:33.134Z,47.05
2022-12-31T22:34:02.251Z,46.50
2022-12-31T22:36:30.884Z,50.17
2022-12-31T22:39:01.735Z,50.75
2022-12-31T22:41:30.660Z,51.20
2022-12-31T22:44:04.160Z,53.53
2022-12-31T22:46:33.911Z,50.55
2022-12-31T22:49:03.675Z,58.45
2022-12-31T22:51:56.550Z,51.85
2022-12-31T22:54:22.514Z,51.38
2022-12-31T22:56:51.350Z,52.90
2022-12-31T22:59:19.670Z,51.80
2022-12-31T23:01:48.356Z,51.72
2022-12-31T23:04:17.100Z,49.17
2022-12-31T23:06:47.448Z,54.85
2022-12-31T23:09:35.842Z,50.42
2022-12-31T23:12:09.796Z,49.95
2022-12-31T23:14:56.862Z,58.35
2022-12-31T23:17:44.480Z,55.85
2022-12-31T23:20:33.739Z,54.78
2022-12-31T23:23:12.608Z,141.45
2022-12-31T23:25:43.444Z,91.60
2022-12-31T23:28:17.512Z,100.35
2022-12-31T23:30:46.475Z,143.55
2022-12-31T23:33:17.473Z,146.93
2022-12-31T23:35:46.321Z,109.38
2022-12-31T23:38:16.791Z,77.85
2022-12-31T23:40:45.296Z,55.10
2022-12-31T23:43:21.186Z,58.03
2022-12-31T23:48:17.880Z,62.20
2022-12-31T23:50:52.500Z,57.20
2022-12-31T23:53:21.581Z,63.30
2022-12-31T23:55:49.970Z,73.47
2022-12-31T23:58:19.798Z,68.00
